Chickamaw Beach, Minnesota
Current Conditions -  °F | °C
As of 7:34 AM on Thursday 23 Oct 2014 (Local Time) from KPWC Reporting Station
Overcast Overcast  
Wind Chill: 52°   Ceiling: 500
Heat Index: 52°   Visibility: 7mi
Dew Point: 52°   Wind: 6mph
Humidity: 100%   Direction: 230°SW
Pressure: 29.97"   Gusts: NA
Location:  46.6535°N, 94.5389°W
Report Text: KPWC 231234Z AUTO 23005KT 7SM OVC005 11/11 A2997 RMK AO2
Loading
Personal Weather Stations






























Interactive Weather Map
Tropical Storm Tracking
New forecast layout! Learn more

10-Day Weather Forecast

Advertisements
Track Severe Weather on mobile